sensor_id;sensor_type;location;lat;lon;timestamp;P1;durP1;ratioP1;P2;durP2;ratioP2
33170;SDS011;19535;50.672;4.206;2023-10-19T00:01:18;2.10;;;1.90;;
33170;SDS011;19535;50.672;4.206;2023-10-19T00:03:45;1.80;;;1.70;;
33170;SDS011;19535;50.672;4.206;2023-10-19T00:06:12;2.25;;;1.80;;
33170;SDS011;19535;50.672;4.206;2023-10-19T00:08:39;1.83;;;1.73;;
33170;SDS011;19535;50.672;4.206;2023-10-19T00:11:10;1.73;;;1.63;;
33170;SDS011;19535;50.672;4.206;2023-10-19T00:13:48;2.00;;;1.80;;
33170;SDS011;19535;50.672;4.206;2023-10-19T00:16:20;2.58;;;1.60;;
33170;SDS011;19535;50.672;4.206;2023-10-19T00:18:56;2.10;;;1.85;;
33170;SDS011;19535;50.672;4.206;2023-10-19T00:21:26;2.05;;;1.80;;
33170;SDS011;19535;50.672;4.206;2023-10-19T00:23:55;1.80;;;1.70;;
33170;SDS011;19535;50.672;4.206;2023-10-19T00:26:24;2.05;;;1.88;;
33170;SDS011;19535;50.672;4.206;2023-10-19T00:28:51;1.90;;;1.80;;
33170;SDS011;19535;50.672;4.206;2023-10-19T00:31:27;2.38;;;2.17;;
33170;SDS011;19535;50.672;4.206;2023-10-19T00:33:55;1.83;;;1.67;;
33170;SDS011;19535;50.672;4.206;2023-10-19T00:36:22;1.77;;;1.60;;
33170;SDS011;19535;50.672;4.206;2023-10-19T00:38:50;2.00;;;1.77;;
33170;SDS011;19535;50.672;4.206;2023-10-19T00:41:21;1.70;;;1.60;;
33170;SDS011;19535;50.672;4.206;2023-10-19T00:43:57;2.97;;;2.10;;
33170;SDS011;19535;50.672;4.206;2023-10-19T00:46:30;2.92;;;2.35;;
33170;SDS011;19535;50.672;4.206;2023-10-19T00:51:40;1.67;;;1.58;;
33170;SDS011;19535;50.672;4.206;2023-10-19T00:54:26;3.25;;;2.00;;
33170;SDS011;19535;50.672;4.206;2023-10-19T00:57:02;2.10;;;1.80;;
33170;SDS011;19535;50.672;4.206;2023-10-19T00:59:39;2.80;;;2.05;;
33170;SDS011;19535;50.672;4.206;2023-10-19T01:05:02;2.33;;;1.90;;
33170;SDS011;19535;50.672;4.206;2023-10-19T01:07:33;2.00;;;1.80;;
33170;SDS011;19535;50.672;4.206;2023-10-19T01:10:04;1.88;;;1.77;;
33170;SDS011;19535;50.672;4.206;2023-10-19T01:12:37;3.95;;;1.90;;
33170;SDS011;19535;50.672;4.206;2023-10-19T01:15:08;1.45;;;1.35;;
33170;SDS011;19535;50.672;4.206;2023-10-19T01:17:55;2.05;;;1.77;;
33170;SDS011;19535;50.672;4.206;2023-10-19T01:20:27;1.70;;;1.58;;
33170;SDS011;19535;50.672;4.206;2023-10-19T01:22:59;2.03;;;1.73;;
33170;SDS011;19535;50.672;4.206;2023-10-19T01:31:13;1.60;;;1.45;;
33170;SDS011;19535;50.672;4.206;2023-10-19T01:33:49;2.08;;;1.25;;
33170;SDS011;19535;50.672;4.206;2023-10-19T01:36:17;2.22;;;1.70;;
33170;SDS011;19535;50.672;4.206;2023-10-19T01:38:46;1.70;;;1.45;;
33170;SDS011;19535;50.672;4.206;2023-10-19T01:41:14;1.42;;;1.33;;
33170;SDS011;19535;50.672;4.206;2023-10-19T01:43:46;1.60;;;1.50;;
33170;SDS011;19535;50.672;4.206;2023-10-19T01:46:15;1.80;;;1.50;;
33170;SDS011;19535;50.672;4.206;2023-10-19T01:48:57;1.70;;;1.58;;
33170;SDS011;19535;50.672;4.206;2023-10-19T01:51:25;1.70;;;1.60;;
33170;SDS011;19535;50.672;4.206;2023-10-19T01:53:53;1.50;;;1.40;;
33170;SDS011;19535;50.672;4.206;2023-10-19T01:56:22;1.55;;;1.45;;
33170;SDS011;19535;50.672;4.206;2023-10-19T01:58:49;1.40;;;1.30;;
33170;SDS011;19535;50.672;4.206;2023-10-19T02:01:21;1.58;;;1.35;;
33170;SDS011;19535;50.672;4.206;2023-10-19T02:03:54;1.60;;;1.23;;
33170;SDS011;19535;50.672;4.206;2023-10-19T02:06:27;6.03;;;1.63;;
33170;SDS011;19535;50.672;4.206;2023-10-19T02:11:36;1.55;;;1.10;;
33170;SDS011;19535;50.672;4.206;2023-10-19T02:14:04;1.38;;;1.17;;
33170;SDS011;19535;50.672;4.206;2023-10-19T02:16:44;1.50;;;1.40;;
33170;SDS011;19535;50.672;4.206;2023-10-19T02:19:13;1.75;;;1.35;;
33170;SDS011;19535;50.672;4.206;2023-10-19T02:21:40;2.75;;;1.23;;
33170;SDS011;19535;50.672;4.206;2023-10-19T02:24:08;2.83;;;1.60;;
33170;SDS011;19535;50.672;4.206;2023-10-19T02:26:37;1.98;;;1.30;;
33170;SDS011;19535;50.672;4.206;2023-10-19T02:29:04;1.42;;;1.30;;
33170;SDS011;19535;50.672;4.206;2023-10-19T02:31:36;1.77;;;1.50;;
33170;SDS011;19535;50.672;4.206;2023-10-19T02:34:07;1.70;;;1.40;;
33170;SDS011;19535;50.672;4.206;2023-10-19T02:36:37;2.28;;;1.15;;
33170;SDS011;19535;50.672;4.206;2023-10-19T02:39:06;1.67;;;1.27;;
33170;SDS011;19535;50.672;4.206;2023-10-19T02:41:34;2.03;;;1.20;;
33170;SDS011;19535;50.672;4.206;2023-10-19T02:44:02;1.92;;;1.20;;
33170;SDS011;19535;50.672;4.206;2023-10-19T02:46:52;2.10;;;1.90;;
33170;SDS011;19535;50.672;4.206;2023-10-19T02:49:25;1.42;;;1.30;;
33170;SDS011;19535;50.672;4.206;2023-10-19T02:51:53;1.27;;;1.10;;
33170;SDS011;19535;50.672;4.206;2023-10-19T02:54:21;2.28;;;1.30;;
33170;SDS011;19535;50.672;4.206;2023-10-19T02:56:51;1.30;;;1.20;;
33170;SDS011;19535;50.672;4.206;2023-10-19T02:59:20;1.35;;;1.10;;
33170;SDS011;19535;50.672;4.206;2023-10-19T03:01:53;1.27;;;1.08;;
33170;SDS011;19535;50.672;4.206;2023-10-19T03:04:29;1.27;;;1.02;;
33170;SDS011;19535;50.672;4.206;2023-10-19T03:06:57;1.55;;;1.10;;
33170;SDS011;19535;50.672;4.206;2023-10-19T03:09:24;1.20;;;1.10;;
33170;SDS011;19535;50.672;4.206;2023-10-19T03:11:54;1.65;;;1.40;;
33170;SDS011;19535;50.672;4.206;2023-10-19T03:14:26;1.63;;;1.15;;
33170;SDS011;19535;50.672;4.206;2023-10-19T03:16:53;1.67;;;1.48;;
33170;SDS011;19535;50.672;4.206;2023-10-19T03:19:24;1.20;;;1.10;;
33170;SDS011;19535;50.672;4.206;2023-10-19T03:21:54;2.40;;;1.25;;
33170;SDS011;19535;50.672;4.206;2023-10-19T03:24:22;1.60;;;1.15;;
33170;SDS011;19535;50.672;4.206;2023-10-19T03:26:50;1.40;;;1.10;;
33170;SDS011;19535;50.672;4.206;2023-10-19T03:29:17;1.88;;;1.35;;
33170;SDS011;19535;50.672;4.206;2023-10-19T03:31:58;1.92;;;1.45;;
33170;SDS011;19535;50.672;4.206;2023-10-19T03:34:28;1.88;;;1.00;;
33170;SDS011;19535;50.672;4.206;2023-10-19T03:37:01;1.83;;;1.15;;
33170;SDS011;19535;50.672;4.206;2023-10-19T03:39:38;2.83;;;1.40;;
33170;SDS011;19535;50.672;4.206;2023-10-19T03:42:06;2.20;;;1.20;;
33170;SDS011;19535;50.672;4.206;2023-10-19T03:44:40;2.08;;;1.20;;
33170;SDS011;19535;50.672;4.206;2023-10-19T03:47:17;2.08;;;1.10;;
33170;SDS011;19535;50.672;4.206;2023-10-19T03:49:47;1.52;;;1.25;;
33170;SDS011;19535;50.672;4.206;2023-10-19T03:52:17;1.88;;;0.90;;
33170;SDS011;19535;50.672;4.206;2023-10-19T03:54:44;1.13;;;1.00;;
33170;SDS011;19535;50.672;4.206;2023-10-19T03:57:16;1.77;;;1.00;;
33170;SDS011;19535;50.672;4.206;2023-10-19T03:59:56;1.98;;;1.30;;
33170;SDS011;19535;50.672;4.206;2023-10-19T04:02:27;1.83;;;1.10;;
33170;SDS011;19535;50.672;4.206;2023-10-19T04:04:56;1.55;;;1.20;;
33170;SDS011;19535;50.672;4.206;2023-10-19T04:07:24;1.73;;;1.05;;
33170;SDS011;19535;50.672;4.206;2023-10-19T04:09:57;1.70;;;1.20;;
33170;SDS011;19535;50.672;4.206;2023-10-19T04:12:37;1.60;;;1.00;;
33170;SDS011;19535;50.672;4.206;2023-10-19T04:15:08;1.23;;;1.10;;
33170;SDS011;19535;50.672;4.206;2023-10-19T04:17:40;1.83;;;1.00;;
33170;SDS011;19535;50.672;4.206;2023-10-19T04:20:09;2.00;;;1.35;;
33170;SDS011;19535;50.672;4.206;2023-10-19T04:22:46;1.73;;;1.00;;
33170;SDS011;19535;50.672;4.206;2023-10-19T04:25:14;1.73;;;1.08;;
33170;SDS011;19535;50.672;4.206;2023-10-19T04:27:42;1.67;;;0.90;;
33170;SDS011;19535;50.672;4.206;2023-10-19T04:30:10;2.25;;;1.30;;
33170;SDS011;19535;50.672;4.206;2023-10-19T04:32:48;2.15;;;1.00;;
33170;SDS011;19535;50.672;4.206;2023-10-19T04:35:17;2.43;;;1.23;;
33170;SDS011;19535;50.672;4.206;2023-10-19T04:37:51;2.67;;;1.15;;
33170;SDS011;19535;50.672;4.206;2023-10-19T04:40:19;2.70;;;1.10;;
33170;SDS011;19535;50.672;4.206;2023-10-19T04:42:47;1.75;;;1.20;;
33170;SDS011;19535;50.672;4.206;2023-10-19T04:45:15;1.65;;;1.10;;
33170;SDS011;19535;50.672;4.206;2023-10-19T04:47:42;1.70;;;1.00;;
33170;SDS011;19535;50.672;4.206;2023-10-19T04:50:10;2.08;;;1.23;;
33170;SDS011;19535;50.672;4.206;2023-10-19T04:52:37;2.65;;;1.10;;
33170;SDS011;19535;50.672;4.206;2023-10-19T04:55:05;1.65;;;1.10;;
33170;SDS011;19535;50.672;4.206;2023-10-19T04:57:32;1.60;;;0.98;;
33170;SDS011;19535;50.672;4.206;2023-10-19T04:59:59;1.67;;;1.00;;
33170;SDS011;19535;50.672;4.206;2023-10-19T05:02:26;1.63;;;1.05;;
33170;SDS011;19535;50.672;4.206;2023-10-19T05:04:53;1.23;;;1.13;;
33170;SDS011;19535;50.672;4.206;2023-10-19T05:07:20;2.05;;;1.20;;
33170;SDS011;19535;50.672;4.206;2023-10-19T05:09:47;1.75;;;0.98;;
33170;SDS011;19535;50.672;4.206;2023-10-19T05:12:14;1.40;;;1.13;;
33170;SDS011;19535;50.672;4.206;2023-10-19T05:14:42;1.52;;;1.25;;
33170;SDS011;19535;50.672;4.206;2023-10-19T05:17:09;1.98;;;1.10;;
33170;SDS011;19535;50.672;4.206;2023-10-19T05:19:37;1.67;;;0.98;;
33170;SDS011;19535;50.672;4.206;2023-10-19T05:22:06;1.70;;;0.93;;
33170;SDS011;19535;50.672;4.206;2023-10-19T05:24:34;1.67;;;1.08;;
33170;SDS011;19535;50.672;4.206;2023-10-19T05:27:01;1.77;;;1.13;;
33170;SDS011;19535;50.672;4.206;2023-10-19T05:29:30;1.70;;;1.20;;
33170;SDS011;19535;50.672;4.206;2023-10-19T05:32:02;1.38;;;0.90;;
33170;SDS011;19535;50.672;4.206;2023-10-19T05:34:30;2.25;;;1.05;;
33170;SDS011;19535;50.672;4.206;2023-10-19T05:36:59;1.17;;;0.88;;
33170;SDS011;19535;50.672;4.206;2023-10-19T05:39:28;1.88;;;0.90;;
33170;SDS011;19535;50.672;4.206;2023-10-19T05:41:57;1.20;;;0.80;;
33170;SDS011;19535;50.672;4.206;2023-10-19T05:44:30;1.80;;;1.15;;
33170;SDS011;19535;50.672;4.206;2023-10-19T05:46:58;2.40;;;1.02;;
33170;SDS011;19535;50.672;4.206;2023-10-19T05:49:26;1.92;;;0.90;;
33170;SDS011;19535;50.672;4.206;2023-10-19T05:51:55;0.90;;;0.80;;
33170;SDS011;19535;50.672;4.206;2023-10-19T05:54:22;2.42;;;1.10;;
33170;SDS011;19535;50.672;4.206;2023-10-19T05:56:50;2.40;;;1.05;;
33170;SDS011;19535;50.672;4.206;2023-10-19T05:59:19;1.83;;;0.98;;
33170;SDS011;19535;50.672;4.206;2023-10-19T06:01:46;2.08;;;0.90;;
33170;SDS011;19535;50.672;4.206;2023-10-19T06:04:14;1.70;;;1.02;;
33170;SDS011;19535;50.672;4.206;2023-10-19T06:06:46;2.45;;;1.00;;
33170;SDS011;19535;50.672;4.206;2023-10-19T06:09:14;2.03;;;1.00;;
33170;SDS011;19535;50.672;4.206;2023-10-19T06:11:45;1.30;;;0.90;;
33170;SDS011;19535;50.672;4.206;2023-10-19T06:14:12;2.50;;;1.25;;
33170;SDS011;19535;50.672;4.206;2023-10-19T06:16:39;1.23;;;0.90;;
33170;SDS011;19535;50.672;4.206;2023-10-19T06:19:06;1.73;;;0.95;;
33170;SDS011;19535;50.672;4.206;2023-10-19T06:21:33;1.33;;;0.80;;
33170;SDS011;19535;50.672;4.206;2023-10-19T06:24:00;1.45;;;1.00;;
33170;SDS011;19535;50.672;4.206;2023-10-19T06:26:29;1.92;;;0.85;;
33170;SDS011;19535;50.672;4.206;2023-10-19T06:28:56;1.10;;;0.73;;
33170;SDS011;19535;50.672;4.206;2023-10-19T06:31:25;2.88;;;1.20;;
33170;SDS011;19535;50.672;4.206;2023-10-19T06:33:55;2.03;;;1.00;;
33170;SDS011;19535;50.672;4.206;2023-10-19T06:36:23;2.63;;;1.20;;
33170;SDS011;19535;50.672;4.206;2023-10-19T06:38:50;2.25;;;1.10;;
33170;SDS011;19535;50.672;4.206;2023-10-19T06:41:18;2.90;;;1.30;;
33170;SDS011;19535;50.672;4.206;2023-10-19T06:43:45;1.60;;;0.95;;
33170;SDS011;19535;50.672;4.206;2023-10-19T06:46:13;1.33;;;0.95;;
33170;SDS011;19535;50.672;4.206;2023-10-19T06:48:41;3.17;;;1.10;;
33170;SDS011;19535;50.672;4.206;2023-10-19T06:51:09;2.28;;;1.30;;
33170;SDS011;19535;50.672;4.206;2023-10-19T06:53:36;2.65;;;1.00;;
33170;SDS011;19535;50.672;4.206;2023-10-19T06:56:03;2.08;;;0.93;;
33170;SDS011;19535;50.672;4.206;2023-10-19T06:58:30;1.08;;;0.98;;
33170;SDS011;19535;50.672;4.206;2023-10-19T07:00:58;2.35;;;1.17;;
33170;SDS011;19535;50.672;4.206;2023-10-19T07:03:32;1.75;;;1.13;;
33170;SDS011;19535;50.672;4.206;2023-10-19T07:05:59;1.67;;;0.90;;
33170;SDS011;19535;50.672;4.206;2023-10-19T07:08:26;1.48;;;0.93;;
33170;SDS011;19535;50.672;4.206;2023-10-19T07:10:53;1.73;;;1.10;;
33170;SDS011;19535;50.672;4.206;2023-10-19T07:13:22;2.90;;;1.00;;
33170;SDS011;19535;50.672;4.206;2023-10-19T07:15:49;2.25;;;0.98;;
33170;SDS011;19535;50.672;4.206;2023-10-19T07:18:16;2.08;;;0.95;;
33170;SDS011;19535;50.672;4.206;2023-10-19T07:20:43;2.15;;;1.20;;
33170;SDS011;19535;50.672;4.206;2023-10-19T07:23:14;2.15;;;1.25;;
33170;SDS011;19535;50.672;4.206;2023-10-19T07:25:45;2.08;;;0.90;;
33170;SDS011;19535;50.672;4.206;2023-10-19T07:28:15;1.00;;;0.80;;
33170;SDS011;19535;50.672;4.206;2023-10-19T07:30:43;1.33;;;0.77;;
33170;SDS011;19535;50.672;4.206;2023-10-19T07:33:11;2.38;;;0.88;;
33170;SDS011;19535;50.672;4.206;2023-10-19T07:35:44;1.20;;;1.00;;
33170;SDS011;19535;50.672;4.206;2023-10-19T07:38:17;3.00;;;1.20;;
33170;SDS011;19535;50.672;4.206;2023-10-19T07:40:48;1.10;;;0.75;;
33170;SDS011;19535;50.672;4.206;2023-10-19T07:43:15;1.65;;;1.00;;
33170;SDS011;19535;50.672;4.206;2023-10-19T07:45:42;2.22;;;1.00;;
33170;SDS011;19535;50.672;4.206;2023-10-19T07:48:09;2.33;;;0.98;;
33170;SDS011;19535;50.672;4.206;2023-10-19T07:50:39;1.15;;;0.77;;
33170;SDS011;19535;50.672;4.206;2023-10-19T07:53:07;1.58;;;0.80;;
33170;SDS011;19535;50.672;4.206;2023-10-19T07:55:35;1.60;;;0.98;;
33170;SDS011;19535;50.672;4.206;2023-10-19T07:58:05;3.65;;;1.20;;
33170;SDS011;19535;50.672;4.206;2023-10-19T08:00:35;1.50;;;1.00;;
33170;SDS011;19535;50.672;4.206;2023-10-19T08:03:02;1.52;;;0.80;;
33170;SDS011;19535;50.672;4.206;2023-10-19T08:05:33;1.33;;;0.93;;
33170;SDS011;19535;50.672;4.206;2023-10-19T08:08:01;2.67;;;0.98;;
33170;SDS011;19535;50.672;4.206;2023-10-19T08:10:30;1.50;;;0.90;;
33170;SDS011;19535;50.672;4.206;2023-10-19T08:12:58;2.50;;;1.00;;
33170;SDS011;19535;50.672;4.206;2023-10-19T08:15:26;2.45;;;1.00;;
33170;SDS011;19535;50.672;4.206;2023-10-19T08:17:53;2.78;;;1.23;;
33170;SDS011;19535;50.672;4.206;2023-10-19T08:20:21;3.00;;;0.93;;
33170;SDS011;19535;50.672;4.206;2023-10-19T08:22:58;2.20;;;1.02;;
33170;SDS011;19535;50.672;4.206;2023-10-19T08:25:28;2.08;;;1.00;;
33170;SDS011;19535;50.672;4.206;2023-10-19T08:28:13;1.65;;;0.93;;
33170;SDS011;19535;50.672;4.206;2023-10-19T08:30:41;2.03;;;1.00;;
33170;SDS011;19535;50.672;4.206;2023-10-19T08:33:08;2.78;;;0.95;;
33170;SDS011;19535;50.672;4.206;2023-10-19T08:35:35;2.80;;;1.20;;
33170;SDS011;19535;50.672;4.206;2023-10-19T08:38:02;2.45;;;1.02;;
33170;SDS011;19535;50.672;4.206;2023-10-19T08:40:36;2.20;;;1.00;;
33170;SDS011;19535;50.672;4.206;2023-10-19T08:43:04;1.98;;;0.68;;
33170;SDS011;19535;50.672;4.206;2023-10-19T08:45:31;1.75;;;0.88;;
33170;SDS011;19535;50.672;4.206;2023-10-19T08:47:59;1.73;;;1.00;;
33170;SDS011;19535;50.672;4.206;2023-10-19T08:50:31;2.05;;;1.08;;
33170;SDS011;19535;50.672;4.206;2023-10-19T08:53:00;1.43;;;0.90;;
33170;SDS011;19535;50.672;4.206;2023-10-19T08:55:29;1.88;;;0.90;;
33170;SDS011;19535;50.672;4.206;2023-10-19T08:58:15;6.78;;;1.00;;
33170;SDS011;19535;50.672;4.206;2023-10-19T09:00:46;1.50;;;1.00;;
33170;SDS011;19535;50.672;4.206;2023-10-19T09:03:16;1.40;;;0.95;;
33170;SDS011;19535;50.672;4.206;2023-10-19T09:05:44;1.45;;;0.82;;
33170;SDS011;19535;50.672;4.206;2023-10-19T09:08:15;1.35;;;0.90;;
33170;SDS011;19535;50.672;4.206;2023-10-19T09:10:43;2.35;;;1.00;;
33170;SDS011;19535;50.672;4.206;2023-10-19T09:13:15;2.03;;;0.90;;
33170;SDS011;19535;50.672;4.206;2023-10-19T09:15:46;1.67;;;0.90;;
33170;SDS011;19535;50.672;4.206;2023-10-19T09:18:21;2.65;;;1.17;;
33170;SDS011;19535;50.672;4.206;2023-10-19T09:23:28;1.75;;;1.02;;
33170;SDS011;19535;50.672;4.206;2023-10-19T09:25:56;3.15;;;1.05;;
33170;SDS011;19535;50.672;4.206;2023-10-19T09:28:24;2.22;;;0.90;;
33170;SDS011;19535;50.672;4.206;2023-10-19T09:30:52;2.13;;;1.00;;
33170;SDS011;19535;50.672;4.206;2023-10-19T09:33:20;1.45;;;0.90;;
33170;SDS011;19535;50.672;4.206;2023-10-19T09:35:50;2.85;;;1.10;;
33170;SDS011;19535;50.672;4.206;2023-10-19T09:38:24;3.78;;;1.05;;
33170;SDS011;19535;50.672;4.206;2023-10-19T09:40:53;3.42;;;1.20;;
33170;SDS011;19535;50.672;4.206;2023-10-19T09:43:45;3.28;;;1.13;;
33170;SDS011;19535;50.672;4.206;2023-10-19T09:46:27;3.88;;;1.20;;
33170;SDS011;19535;50.672;4.206;2023-10-19T09:48:58;2.85;;;1.10;;
33170;SDS011;19535;50.672;4.206;2023-10-19T09:51:25;2.88;;;1.17;;
33170;SDS011;19535;50.672;4.206;2023-10-19T09:56:41;3.30;;;1.50;;
33170;SDS011;19535;50.672;4.206;2023-10-19T09:59:16;3.03;;;1.20;;
33170;SDS011;19535;50.672;4.206;2023-10-19T10:04:40;4.72;;;1.40;;
33170;SDS011;19535;50.672;4.206;2023-10-19T10:07:08;3.85;;;1.30;;
33170;SDS011;19535;50.672;4.206;2023-10-19T10:09:37;2.65;;;1.20;;
33170;SDS011;19535;50.672;4.206;2023-10-19T10:12:22;2.05;;;1.10;;
33170;SDS011;19535;50.672;4.206;2023-10-19T10:17:35;2.40;;;1.30;;
33170;SDS011;19535;50.672;4.206;2023-10-19T10:22:41;2.53;;;1.45;;
33170;SDS011;19535;50.672;4.206;2023-10-19T10:25:25;6.82;;;1.10;;
33170;SDS011;19535;50.672;4.206;2023-10-19T10:27:56;3.42;;;1.20;;
33170;SDS011;19535;50.672;4.206;2023-10-19T10:30:24;3.45;;;1.38;;
33170;SDS011;19535;50.672;4.206;2023-10-19T10:32:52;3.67;;;1.73;;
33170;SDS011;19535;50.672;4.206;2023-10-19T10:38:08;3.70;;;1.30;;
33170;SDS011;19535;50.672;4.206;2023-10-19T10:40:53;2.47;;;1.35;;
33170;SDS011;19535;50.672;4.206;2023-10-19T10:43:20;1.83;;;1.15;;
33170;SDS011;19535;50.672;4.206;2023-10-19T10:45:48;3.33;;;1.30;;
33170;SDS011;19535;50.672;4.206;2023-10-19T10:48:15;3.17;;;1.20;;
33170;SDS011;19535;50.672;4.206;2023-10-19T10:50:43;3.60;;;1.40;;
33170;SDS011;19535;50.672;4.206;2023-10-19T10:53:12;2.50;;;1.17;;
33170;SDS011;19535;50.672;4.206;2023-10-19T10:55:41;2.70;;;1.40;;
33170;SDS011;19535;50.672;4.206;2023-10-19T10:58:09;2.97;;;1.52;;
33170;SDS011;19535;50.672;4.206;2023-10-19T11:00:44;2.17;;;1.02;;
33170;SDS011;19535;50.672;4.206;2023-10-19T11:03:13;2.90;;;1.20;;
33170;SDS011;19535;50.672;4.206;2023-10-19T11:05:42;1.90;;;1.30;;
33170;SDS011;19535;50.672;4.206;2023-10-19T11:10:40;2.25;;;1.10;;
33170;SDS011;19535;50.672;4.206;2023-10-19T11:13:14;3.35;;;1.17;;
33170;SDS011;19535;50.672;4.206;2023-10-19T11:15:55;1.80;;;1.02;;
33170;SDS011;19535;50.672;4.206;2023-10-19T11:20:56;2.88;;;1.27;;
33170;SDS011;19535;50.672;4.206;2023-10-19T11:23:42;1.65;;;1.05;;
33170;SDS011;19535;50.672;4.206;2023-10-19T11:26:12;3.28;;;1.40;;
33170;SDS011;19535;50.672;4.206;2023-10-19T11:28:43;2.53;;;1.25;;
33170;SDS011;19535;50.672;4.206;2023-10-19T11:31:17;2.17;;;1.10;;
33170;SDS011;19535;50.672;4.206;2023-10-19T11:33:50;1.60;;;1.05;;
33170;SDS011;19535;50.672;4.206;2023-10-19T11:36:19;2.63;;;1.33;;
33170;SDS011;19535;50.672;4.206;2023-10-19T11:38:47;1.95;;;1.20;;
33170;SDS011;19535;50.672;4.206;2023-10-19T11:41:18;2.35;;;1.00;;
33170;SDS011;19535;50.672;4.206;2023-10-19T11:43:45;3.30;;;1.50;;
33170;SDS011;19535;50.672;4.206;2023-10-19T11:46:14;1.60;;;1.05;;
33170;SDS011;19535;50.672;4.206;2023-10-19T11:51:11;3.25;;;1.23;;
33170;SDS011;19535;50.672;4.206;2023-10-19T11:53:40;3.35;;;1.20;;
33170;SDS011;19535;50.672;4.206;2023-10-19T11:56:09;2.50;;;1.13;;
33170;SDS011;19535;50.672;4.206;2023-10-19T11:58:39;2.47;;;1.13;;
33170;SDS011;19535;50.672;4.206;2023-10-19T12:01:09;3.00;;;1.30;;
33170;SDS011;19535;50.672;4.206;2023-10-19T12:03:39;2.83;;;1.17;;
33170;SDS011;19535;50.672;4.206;2023-10-19T12:06:07;2.42;;;0.93;;
33170;SDS011;19535;50.672;4.206;2023-10-19T12:08:36;3.60;;;1.00;;
33170;SDS011;19535;50.672;4.206;2023-10-19T12:11:04;2.00;;;1.02;;
33170;SDS011;19535;50.672;4.206;2023-10-19T12:13:45;4.13;;;1.10;;
33170;SDS011;19535;50.672;4.206;2023-10-19T12:16:12;2.30;;;1.05;;
33170;SDS011;19535;50.672;4.206;2023-10-19T12:21:09;4.75;;;1.27;;
33170;SDS011;19535;50.672;4.206;2023-10-19T12:23:39;1.55;;;0.98;;
33170;SDS011;19535;50.672;4.206;2023-10-19T12:26:07;4.40;;;1.02;;
33170;SDS011;19535;50.672;4.206;2023-10-19T12:28:41;1.95;;;1.08;;
33170;SDS011;19535;50.672;4.206;2023-10-19T12:31:10;2.15;;;0.90;;
33170;SDS011;19535;50.672;4.206;2023-10-19T12:33:38;1.75;;;0.95;;
33170;SDS011;19535;50.672;4.206;2023-10-19T12:36:05;2.13;;;0.90;;
33170;SDS011;19535;50.672;4.206;2023-10-19T12:38:50;1.38;;;0.98;;
33170;SDS011;19535;50.672;4.206;2023-10-19T12:41:19;2.67;;;1.20;;
33170;SDS011;19535;50.672;4.206;2023-10-19T12:43:45;1.75;;;0.88;;
33170;SDS011;19535;50.672;4.206;2023-10-19T12:46:13;2.03;;;1.00;;
33170;SDS011;19535;50.672;4.206;2023-10-19T12:48:42;1.53;;;1.00;;
33170;SDS011;19535;50.672;4.206;2023-10-19T12:51:09;1.35;;;0.98;;
33170;SDS011;19535;50.672;4.206;2023-10-19T12:53:38;1.73;;;0.80;;
33170;SDS011;19535;50.672;4.206;2023-10-19T12:56:05;1.75;;;1.00;;
33170;SDS011;19535;50.672;4.206;2023-10-19T12:58:34;1.88;;;0.70;;
33170;SDS011;19535;50.672;4.206;2023-10-19T13:01:01;2.80;;;1.27;;
33170;SDS011;19535;50.672;4.206;2023-10-19T13:03:31;6.60;;;0.90;;
33170;SDS011;19535;50.672;4.206;2023-10-19T13:05:59;1.65;;;0.80;;
33170;SDS011;19535;50.672;4.206;2023-10-19T13:08:30;1.88;;;1.10;;
33170;SDS011;19535;50.672;4.206;2023-10-19T13:10:57;2.00;;;0.88;;
33170;SDS011;19535;50.672;4.206;2023-10-19T13:13:39;1.50;;;0.77;;
33170;SDS011;19535;50.672;4.206;2023-10-19T13:16:06;2.75;;;0.93;;
33170;SDS011;19535;50.672;4.206;2023-10-19T13:18:35;1.55;;;0.98;;
33170;SDS011;19535;50.672;4.206;2023-10-19T13:21:02;1.35;;;0.90;;
33170;SDS011;19535;50.672;4.206;2023-10-19T13:23:32;0.70;;;0.70;;
33170;SDS011;19535;50.672;4.206;2023-10-19T13:25:59;1.23;;;0.85;;
33170;SDS011;19535;50.672;4.206;2023-10-19T13:28:44;1.77;;;0.60;;
33170;SDS011;19535;50.672;4.206;2023-10-19T13:31:11;1.73;;;0.80;;
33170;SDS011;19535;50.672;4.206;2023-10-19T13:33:42;0.93;;;0.75;;
33170;SDS011;19535;50.672;4.206;2023-10-19T13:36:10;0.93;;;0.73;;
33170;SDS011;19535;50.672;4.206;2023-10-19T13:38:39;1.58;;;0.90;;
33170;SDS011;19535;50.672;4.206;2023-10-19T13:41:06;0.93;;;0.60;;
33170;SDS011;19535;50.672;4.206;2023-10-19T13:43:43;0.85;;;0.80;;
33170;SDS011;19535;50.672;4.206;2023-10-19T13:46:11;1.25;;;0.85;;
33170;SDS011;19535;50.672;4.206;2023-10-19T13:48:38;0.90;;;0.70;;
33170;SDS011;19535;50.672;4.206;2023-10-19T13:51:06;1.08;;;0.63;;
33170;SDS011;19535;50.672;4.206;2023-10-19T13:53:40;1.65;;;0.70;;
33170;SDS011;19535;50.672;4.206;2023-10-19T13:56:12;1.17;;;0.75;;
33170;SDS011;19535;50.672;4.206;2023-10-19T14:01:08;1.45;;;0.80;;
33170;SDS011;19535;50.672;4.206;2023-10-19T14:03:37;1.02;;;0.60;;
33170;SDS011;19535;50.672;4.206;2023-10-19T14:06:04;0.65;;;0.65;;
33170;SDS011;19535;50.672;4.206;2023-10-19T14:08:32;1.02;;;0.70;;
33170;SDS011;19535;50.672;4.206;2023-10-19T14:11:02;1.05;;;0.85;;
33170;SDS011;19535;50.672;4.206;2023-10-19T14:13:30;1.25;;;0.65;;
33170;SDS011;19535;50.672;4.206;2023-10-19T14:15:58;2.83;;;0.77;;
33170;SDS011;19535;50.672;4.206;2023-10-19T14:18:25;1.05;;;0.60;;
33170;SDS011;19535;50.672;4.206;2023-10-19T14:20:54;1.13;;;0.70;;
33170;SDS011;19535;50.672;4.206;2023-10-19T14:23:24;1.63;;;0.60;;
33170;SDS011;19535;50.672;4.206;2023-10-19T14:25:51;0.70;;;0.40;;
33170;SDS011;19535;50.672;4.206;2023-10-19T14:28:18;0.77;;;0.70;;
33170;SDS011;19535;50.672;4.206;2023-10-19T14:30:45;0.40;;;0.40;;
33170;SDS011;19535;50.672;4.206;2023-10-19T14:33:12;1.50;;;0.70;;
33170;SDS011;19535;50.672;4.206;2023-10-19T14:35:39;1.30;;;0.50;;
33170;SDS011;19535;50.672;4.206;2023-10-19T14:40:36;0.98;;;0.80;;
33170;SDS011;19535;50.672;4.206;2023-10-19T14:43:03;0.88;;;0.45;;
33170;SDS011;19535;50.672;4.206;2023-10-19T14:45:30;0.95;;;0.60;;
33170;SDS011;19535;50.672;4.206;2023-10-19T14:47:59;0.90;;;0.40;;
33170;SDS011;19535;50.672;4.206;2023-10-19T14:50:30;0.65;;;0.50;;
33170;SDS011;19535;50.672;4.206;2023-10-19T14:52:57;1.33;;;0.70;;
33170;SDS011;19535;50.672;4.206;2023-10-19T14:55:24;1.17;;;0.68;;
33170;SDS011;19535;50.672;4.206;2023-10-19T14:57:52;0.93;;;0.60;;
33170;SDS011;19535;50.672;4.206;2023-10-19T15:00:21;3.13;;;0.83;;
33170;SDS011;19535;50.672;4.206;2023-10-19T15:03:01;1.70;;;0.88;;
33170;SDS011;19535;50.672;4.206;2023-10-19T15:05:34;0.85;;;0.60;;
33170;SDS011;19535;50.672;4.206;2023-10-19T15:08:03;1.35;;;0.77;;
33170;SDS011;19535;50.672;4.206;2023-10-19T15:10:34;1.15;;;0.60;;
33170;SDS011;19535;50.672;4.206;2023-10-19T15:13:02;0.95;;;0.55;;
33170;SDS011;19535;50.672;4.206;2023-10-19T15:17:59;0.68;;;0.68;;
33170;SDS011;19535;50.672;4.206;2023-10-19T15:20:26;0.80;;;0.60;;
33170;SDS011;19535;50.672;4.206;2023-10-19T15:22:54;1.40;;;0.80;;
33170;SDS011;19535;50.672;4.206;2023-10-19T15:25:21;0.80;;;0.50;;
33170;SDS011;19535;50.672;4.206;2023-10-19T15:27:53;0.88;;;0.60;;
33170;SDS011;19535;50.672;4.206;2023-10-19T15:30:20;1.02;;;0.60;;
33170;SDS011;19535;50.672;4.206;2023-10-19T15:32:48;0.70;;;0.65;;
33170;SDS011;19535;50.672;4.206;2023-10-19T15:35:19;1.42;;;0.70;;
33170;SDS011;19535;50.672;4.206;2023-10-19T15:37:50;1.73;;;0.52;;
33170;SDS011;19535;50.672;4.206;2023-10-19T15:40:21;1.52;;;0.60;;
33170;SDS011;19535;50.672;4.206;2023-10-19T15:42:48;0.88;;;0.63;;
33170;SDS011;19535;50.672;4.206;2023-10-19T15:45:15;1.25;;;0.70;;
33170;SDS011;19535;50.672;4.206;2023-10-19T15:47:45;0.65;;;0.60;;
33170;SDS011;19535;50.672;4.206;2023-10-19T15:50:13;1.30;;;0.60;;
33170;SDS011;19535;50.672;4.206;2023-10-19T15:52:41;0.85;;;0.57;;